Skip Navigation LinksHome page > Weather > Current weather Skip Navigation Links

Current Weather

Honolulu Intl, Honolulu

For information only: do not use for flight planning or navigation.
Latest weather
Observation time Wednesday, August 31, 2016 4:53 AM HST
Local time Wednesday, August 31, 2016 6:01 AM HST
Flight conditions Visual Meteorological Conditions
Winds
Wind direction Northeast (40°)
Wind speed 9 mph
Visibility 10 mi.
Sky condition
Ceiling 3,600 ft. broken clouds
Cloud layer scattered clouds 2,900 ft.
Cloud layer broken clouds 3,600 ft.
Cloud layer broken clouds 4,800 ft.
Temperature 78°F
Dewpoint 71°F
Altimeter 29.94 in.Hg
Pressure change last 3 hours0.02 in.Hg
Pressure falling more slowly
Derived measurements
Relative humidity 79%
Heat index 78°F
Density altitude 1567 ft.
Sea-level pressure 29.94 in.Hg
Remarks
System requires maintenance.
Automated weather observing station with precipitation discriminator.
METAR PHNL 311453Z 04008KT 10SM SCT029 BKN036 BKN048 26/22 A2994 RMK AO2 SLP138 T02560217 56007 $

Settings

Location code

InnerDrive.Weather 4.0.5722.1 Release CLR 4.0.30319.34209
Copyright ©2015 Inner Drive Technology. All rights reserved. Portions Copyright ©1986-2015 David Braverman.

Find weather

Site navigation


Skip Navigation Links

Place info

Page info

PayPal - The safer, easier way to pay online!

Return home.

Copyright ©2016 Inner Drive Technology. Purveyors of fine, hand-crafted computer software. Page printed 2016-08-31T16:01:33 UTC.